Time;durP1;ratioP1;P1;durP2;ratioP2;P2;SDS_P1;SDS_P2;PMS_P1;PMS_P2;Temp;Humidity;BMP_temperature;BMP_pressure;BME280_temperature;BME280_humidity;BME280_pressure;Samples;Min_cycle;Max_cycle;Signal;HPM_P1;HPM_P2
2024/01/30 00:01:53;;;;;;;4.55;3.28;;;10.10;85.00;;;;;;4995443;28;20038;-68
2024/01/30 00:04:19;;;;;;;4.78;3.35;;;10.10;84.70;;;;;;4985629;28;20022;-67
2024/01/30 00:06:45;;;;;;;4.35;3.00;;;10.10;85.00;;;;;;4988549;28;20026;-68
2024/01/30 00:09:11;;;;;;;4.95;3.28;;;10.10;85.10;;;;;;4988721;28;20018;-67
2024/01/30 00:11:37;;;;;;;4.05;2.65;;;10.10;85.10;;;;;;4990530;28;20045;-67
2024/01/30 00:14:03;;;;;;;5.70;3.10;;;10.00;85.00;;;;;;4989503;28;20101;-67
2024/01/30 00:16:29;;;;;;;3.92;2.67;;;10.00;85.00;;;;;;4989953;28;20038;-67
2024/01/30 00:18:55;;;;;;;4.40;3.20;;;10.00;85.00;;;;;;4993536;28;20030;-67
2024/01/30 00:21:24;;;;;;;4.30;3.00;;;10.00;85.10;;;;;;5001556;28;20026;-67
2024/01/30 00:23:50;;;;;;;4.68;2.90;;;10.00;85.20;;;;;;4999435;28;20030;-67
2024/01/30 00:26:16;;;;;;;3.92;2.80;;;10.00;85.20;;;;;;4996600;28;20027;-67
2024/01/30 00:28:42;;;;;;;5.60;3.20;;;10.00;85.20;;;;;;4992098;28;20084;-67
2024/01/30 00:31:07;;;;;;;4.60;3.15;;;10.00;85.30;;;;;;4996595;28;20022;-67
2024/01/30 00:33:33;;;;;;;3.53;2.60;;;10.00;85.30;;;;;;4998135;28;20013;-68
2024/01/30 00:35:58;;;;;;;3.03;2.50;;;10.00;85.30;;;;;;5000468;28;20497;-69
2024/01/30 00:38:24;;;;;;;3.78;2.60;;;10.00;85.30;;;;;;4999425;28;20469;-69
2024/01/30 00:40:49;;;;;;;3.25;2.30;;;10.00;85.30;;;;;;4995885;28;20070;-69
2024/01/30 00:43:16;;;;;;;4.28;2.72;;;10.00;86.00;;;;;;5004370;28;20022;-69
2024/01/30 00:45:43;;;;;;;4.40;2.47;;;10.00;85.30;;;;;;4997188;28;20030;-69
2024/01/30 00:48:09;;;;;;;3.22;2.42;;;9.90;85.30;;;;;;4996359;28;20076;-69
2024/01/30 00:50:34;;;;;;;2.83;2.30;;;9.90;85.30;;;;;;4995711;28;20507;-69
2024/01/30 00:53:00;;;;;;;3.13;2.30;;;9.90;85.30;;;;;;4993805;28;20396;-69
2024/01/30 00:55:25;;;;;;;5.55;2.60;;;9.80;85.30;;;;;;4996299;28;20112;-69
2024/01/30 00:57:51;;;;;;;3.45;2.60;;;9.80;85.40;;;;;;5000578;28;20750;-69
2024/01/30 01:00:17;;;;;;;4.18;2.90;;;9.80;85.40;;;;;;4992988;28;20492;-69
2024/01/30 01:02:43;;;;;;;3.65;2.80;;;9.80;85.50;;;;;;4991537;28;20030;-69
2024/01/30 01:05:08;;;;;;;3.58;2.53;;;9.80;85.60;;;;;;4999431;28;20057;-69
2024/01/30 01:07:34;;;;;;;3.42;2.30;;;9.70;85.60;;;;;;4995078;28;20026;-69
2024/01/30 01:10:00;;;;;;;5.05;2.97;;;9.70;85.60;;;;;;4990010;28;20070;-70
2024/01/30 01:12:25;;;;;;;3.40;2.58;;;9.70;85.60;;;;;;4993055;28;20022;-69
2024/01/30 01:14:51;;;;;;;3.83;2.40;;;9.70;85.60;;;;;;4995478;28;20027;-68
2024/01/30 01:17:18;;;;;;;2.67;2.17;;;9.70;85.70;;;;;;4989195;28;20026;-69
2024/01/30 01:19:43;;;;;;;2.92;2.20;;;9.70;85.70;;;;;;4989580;28;20048;-69
2024/01/30 01:22:09;;;;;;;4.15;2.63;;;9.70;85.70;;;;;;4988042;28;20484;-70
2024/01/30 01:24:35;;;;;;;3.85;2.90;;;9.70;85.70;;;;;;4997101;28;20033;-69
2024/01/30 01:27:01;;;;;;;5.60;2.90;;;9.70;85.80;;;;;;4990841;28;20061;-69
2024/01/30 01:29:28;;;;;;;5.38;2.80;;;9.70;85.70;;;;;;4990136;28;20065;-69
2024/01/30 01:31:57;;;;;;;3.92;2.85;;;9.70;85.70;;;;;;4987724;28;20026;-68
2024/01/30 01:34:23;;;;;;;4.47;2.72;;;9.60;85.80;;;;;;4989564;28;20026;-68
2024/01/30 01:36:49;;;;;;;4.03;2.50;;;9.60;85.80;;;;;;4987338;28;20503;-68
2024/01/30 01:39:15;;;;;;;3.00;2.30;;;9.60;85.80;;;;;;4989548;28;20113;-67
2024/01/30 01:41:41;;;;;;;3.38;2.38;;;9.60;85.80;;;;;;4989217;28;20109;-67
2024/01/30 01:44:07;;;;;;;3.00;1.90;;;9.60;85.80;;;;;;4990581;28;20537;-69
2024/01/30 01:46:33;;;;;;;2.67;1.95;;;9.60;85.80;;;;;;4987274;28;20121;-68
2024/01/30 01:49:01;;;;;;;4.07;1.80;;;9.60;85.90;;;;;;4996948;28;20023;-66
2024/01/30 01:51:29;;;;;;;2.33;1.80;;;9.60;85.80;;;;;;4992072;28;20073;-67
2024/01/30 01:53:56;;;;;;;3.70;2.50;;;9.60;85.90;;;;;;4998216;28;20033;-67
2024/01/30 01:56:23;;;;;;;3.55;2.47;;;9.60;86.00;;;;;;4997469;28;20030;-67
2024/01/30 01:58:51;;;;;;;3.35;2.40;;;9.50;85.90;;;;;;4992684;28;20031;-68
2024/01/30 02:01:19;;;;;;;2.92;2.05;;;9.50;85.90;;;;;;4992909;28;20031;-66
2024/01/30 02:03:46;;;;;;;3.20;2.30;;;9.50;85.90;;;;;;4992872;28;20106;-67
2024/01/30 02:06:16;;;;;;;2.47;1.90;;;9.60;86.00;;;;;;4989172;28;20030;-67
2024/01/30 02:08:42;;;;;;;2.60;2.00;;;9.50;85.90;;;;;;4992536;28;20025;-67
2024/01/30 02:11:08;;;;;;;3.15;2.10;;;9.50;85.90;;;;;;4992302;28;20118;-67
2024/01/30 02:13:34;;;;;;;3.75;1.90;;;9.50;85.90;;;;;;4992488;28;20105;-68
2024/01/30 02:16:00;;;;;;;2.15;1.95;;;9.50;85.90;;;;;;4991970;28;20572;-68
2024/01/30 02:18:26;;;;;;;4.55;2.60;;;9.50;85.80;;;;;;4992384;28;20026;-68
2024/01/30 02:20:53;;;;;;;2.88;2.20;;;9.50;85.90;;;;;;4993541;28;20101;-67
2024/01/30 02:23:20;;;;;;;3.40;2.08;;;9.50;85.80;;;;;;4991361;28;20060;-67
2024/01/30 02:25:46;;;;;;;3.05;2.20;;;9.50;85.80;;;;;;4991585;28;20389;-67
2024/01/30 02:28:12;;;;;;;3.42;2.65;;;9.40;85.80;;;;;;4989701;28;20034;-67
2024/01/30 02:30:39;;;;;;;4.13;2.40;;;9.40;85.90;;;;;;4992224;28;20053;-68
2024/01/30 02:33:04;;;;;;;3.13;2.10;;;9.40;85.90;;;;;;4990808;28;20022;-67
2024/01/30 02:35:30;;;;;;;2.67;1.95;;;9.30;85.80;;;;;;4994121;28;20034;-67
2024/01/30 02:37:56;;;;;;;3.15;2.30;;;9.30;86.00;;;;;;4993022;28;20045;-67
2024/01/30 02:40:21;;;;;;;2.65;2.08;;;9.20;86.20;;;;;;4993830;28;20026;-67
2024/01/30 02:42:47;;;;;;;2.47;2.00;;;9.20;86.20;;;;;;4990533;28;20038;-67
2024/01/30 02:45:16;;;;;;;2.95;2.25;;;9.20;86.20;;;;;;4993002;28;20106;-67
2024/01/30 02:47:41;;;;;;;3.35;2.30;;;9.20;86.30;;;;;;4992298;28;20066;-67
2024/01/30 02:50:07;;;;;;;3.60;2.80;;;9.20;86.30;;;;;;4993281;28;20097;-67
2024/01/30 02:52:33;;;;;;;3.00;2.20;;;9.20;86.30;;;;;;4991596;28;20035;-67
2024/01/30 02:54:59;;;;;;;3.20;2.42;;;9.20;86.20;;;;;;4991749;28;20027;-67
2024/01/30 02:57:24;;;;;;;3.20;2.58;;;9.20;86.30;;;;;;4991780;28;20038;-68
2024/01/30 02:59:50;;;;;;;3.55;2.40;;;9.10;86.10;;;;;;4990503;28;20384;-67
2024/01/30 03:02:15;;;;;;;2.83;2.15;;;9.20;86.20;;;;;;4999282;28;20088;-65
2024/01/30 03:04:42;;;;;;;5.00;2.40;;;9.20;86.30;;;;;;4994914;28;20034;-66
2024/01/30 03:07:08;;;;;;;3.67;2.40;;;9.20;86.30;;;;;;4997176;28;20042;-65
2024/01/30 03:09:33;;;;;;;4.25;2.70;;;9.20;86.30;;;;;;4996879;28;20431;-67
2024/01/30 03:11:59;;;;;;;3.55;2.53;;;9.10;86.20;;;;;;5001589;28;20486;-67
2024/01/30 03:14:24;;;;;;;3.85;2.88;;;9.20;86.20;;;;;;4998249;28;20069;-67
2024/01/30 03:16:50;;;;;;;3.88;2.88;;;9.20;86.20;;;;;;4999257;28;20065;-66
2024/01/30 03:19:18;;;;;;;4.28;2.72;;;9.10;86.20;;;;;;4996064;28;20029;-66
2024/01/30 03:21:44;;;;;;;3.10;2.53;;;9.10;86.20;;;;;;4993428;28;20044;-66
2024/01/30 03:24:10;;;;;;;4.57;2.67;;;9.10;86.20;;;;;;4992072;28;20108;-67
2024/01/30 03:26:35;;;;;;;3.83;2.75;;;9.10;86.10;;;;;;4991983;28;20457;-66
2024/01/30 03:29:01;;;;;;;3.55;2.50;;;9.10;86.10;;;;;;4999590;28;20559;-67
2024/01/30 03:31:27;;;;;;;3.90;2.40;;;9.10;86.10;;;;;;4995991;28;20025;-66
2024/01/30 03:33:52;;;;;;;4.20;2.60;;;9.10;86.10;;;;;;4992495;28;20026;-67
2024/01/30 03:36:18;;;;;;;3.55;2.45;;;9.10;86.20;;;;;;4999745;28;20061;-67
2024/01/30 03:38:43;;;;;;;3.92;2.60;;;9.10;86.20;;;;;;4988859;28;20033;-67
2024/01/30 03:41:09;;;;;;;3.70;2.80;;;9.10;86.20;;;;;;4996861;28;20332;-68
2024/01/30 03:43:35;;;;;;;3.75;2.42;;;9.10;86.20;;;;;;4999518;28;20015;-67
2024/01/30 03:46:02;;;;;;;3.92;2.35;;;9.10;86.20;;;;;;4993161;28;20543;-67
2024/01/30 03:48:28;;;;;;;3.50;2.40;;;9.10;86.20;;;;;;4991258;28;20481;-67
2024/01/30 03:50:53;;;;;;;3.58;2.50;;;9.10;86.20;;;;;;4997766;28;20030;-68
2024/01/30 03:53:19;;;;;;;3.00;2.20;;;9.10;86.20;;;;;;5001066;28;20052;-67
2024/01/30 03:55:44;;;;;;;3.10;2.20;;;9.10;86.30;;;;;;4996876;28;20026;-67
2024/01/30 03:58:10;;;;;;;3.08;2.28;;;9.10;86.30;;;;;;4994188;28;20030;-68
2024/01/30 04:00:35;;;;;;;4.30;2.95;;;9.10;86.20;;;;;;4990137;28;20030;-67
2024/01/30 04:03:01;;;;;;;4.60;3.00;;;9.10;86.20;;;;;;4989393;28;20034;-68
2024/01/30 04:05:27;;;;;;;4.57;3.40;;;9.10;86.30;;;;;;4991168;28;20042;-68
2024/01/30 04:07:52;;;;;;;3.90;2.92;;;9.00;86.30;;;;;;4991775;28;20041;-67
2024/01/30 04:10:18;;;;;;;5.63;3.30;;;9.00;86.30;;;;;;4990293;28;20053;-67
2024/01/30 04:12:43;;;;;;;4.97;3.10;;;9.00;86.30;;;;;;4991375;28;20037;-67
2024/01/30 04:15:09;;;;;;;5.50;3.35;;;9.00;86.40;;;;;;4988192;28;20369;-68
2024/01/30 04:17:34;;;;;;;4.82;3.20;;;9.00;86.40;;;;;;4988794;28;20596;-69
2024/01/30 04:20:00;;;;;;;4.85;3.05;;;9.00;86.40;;;;;;4989574;28;20022;-68
2024/01/30 04:22:25;;;;;;;5.78;3.40;;;8.90;86.40;;;;;;4988781;28;20037;-68
2024/01/30 04:24:51;;;;;;;5.10;3.30;;;9.00;86.40;;;;;;4988218;28;20156;-68
2024/01/30 04:27:17;;;;;;;4.97;3.30;;;9.00;86.40;;;;;;4985928;28;20105;-69
2024/01/30 04:29:42;;;;;;;3.72;2.63;;;8.90;86.40;;;;;;4990031;28;20489;-69
2024/01/30 04:32:09;;;;;;;4.85;2.72;;;9.00;86.50;;;;;;4989646;28;20026;-69
2024/01/30 04:34:35;;;;;;;3.08;2.10;;;9.00;86.70;;;;;;4991269;28;20029;-68
2024/01/30 04:37:01;;;;;;;3.22;2.40;;;9.00;86.40;;;;;;4989673;28;20117;-69
2024/01/30 04:39:26;;;;;;;5.40;3.20;;;9.00;86.40;;;;;;4988868;28;20193;-69
2024/01/30 04:41:52;;;;;;;3.75;2.50;;;9.00;86.40;;;;;;4987702;28;20459;-68
2024/01/30 04:44:17;;;;;;;5.18;3.20;;;9.00;86.40;;;;;;4997577;28;20165;-69
2024/01/30 04:46:43;;;;;;;4.55;3.08;;;9.10;86.40;;;;;;4988652;28;20054;-69
2024/01/30 04:49:08;;;;;;;5.75;3.75;;;9.10;86.50;;;;;;4988862;28;20097;-68
2024/01/30 04:51:34;;;;;;;4.75;3.17;;;9.10;86.50;;;;;;4989693;28;20026;-68
2024/01/30 04:53:59;;;;;;;5.97;3.08;;;9.10;86.40;;;;;;4990208;28;20030;-68
2024/01/30 04:56:25;;;;;;;3.88;2.78;;;9.10;86.40;;;;;;4987947;28;20029;-67
2024/01/30 04:58:50;;;;;;;5.13;3.20;;;9.10;86.40;;;;;;4989403;28;20592;-68
2024/01/30 05:01:17;;;;;;;4.10;2.42;;;9.10;86.40;;;;;;4986618;28;20389;-68
2024/01/30 05:03:42;;;;;;;6.20;2.78;;;9.20;86.50;;;;;;4989282;28;20057;-67
2024/01/30 05:06:08;;;;;;;5.20;2.80;;;9.20;86.50;;;;;;4988758;28;20070;-66
2024/01/30 05:08:36;;;;;;;5.90;4.05;;;9.20;86.50;;;;;;4989390;28;20049;-67
2024/01/30 05:11:03;;;;;;;4.20;2.88;;;9.20;86.50;;;;;;4989146;28;20137;-66
2024/01/30 05:13:32;;;;;;;5.55;3.58;;;9.30;86.60;;;;;;4989857;28;20037;-66
2024/01/30 05:15:57;;;;;;;5.15;3.28;;;9.30;86.60;;;;;;4985524;28;20397;-66
2024/01/30 05:18:23;;;;;;;4.47;2.78;;;9.30;86.50;;;;;;4992378;28;20101;-66
2024/01/30 05:20:50;;;;;;;6.22;3.38;;;9.30;86.50;;;;;;4992211;28;20042;-65
2024/01/30 05:23:16;;;;;;;5.15;3.40;;;9.30;86.50;;;;;;4991300;28;20026;-67
2024/01/30 05:25:41;;;;;;;6.40;4.03;;;9.30;86.50;;;;;;4987502;28;20026;-67
2024/01/30 05:28:07;;;;;;;5.95;3.92;;;9.30;86.60;;;;;;4992919;28;20038;-66
2024/01/30 05:30:32;;;;;;;7.63;4.68;;;9.30;86.60;;;;;;4991656;28;20030;-66
2024/01/30 05:32:58;;;;;;;7.28;4.38;;;9.30;86.70;;;;;;4992939;28;20029;-67
2024/01/30 05:35:23;;;;;;;7.90;4.93;;;9.40;86.90;;;;;;4993838;28;20025;-67
2024/01/30 05:37:50;;;;;;;7.03;3.92;;;9.40;86.90;;;;;;4993821;28;20022;-67
2024/01/30 05:40:15;;;;;;;5.57;3.90;;;9.40;86.90;;;;;;4992567;28;20026;-67
2024/01/30 05:42:41;;;;;;;6.10;4.32;;;9.40;86.90;;;;;;4993924;28;20084;-67
2024/01/30 05:45:08;;;;;;;9.57;5.45;;;9.40;86.90;;;;;;4991749;28;20172;-68
2024/01/30 05:47:34;;;;;;;7.53;4.88;;;9.40;87.30;;;;;;4992750;28;20030;-69
2024/01/30 05:49:59;;;;;;;6.10;3.90;;;9.40;87.40;;;;;;4992813;28;20019;-68
2024/01/30 05:52:25;;;;;;;5.15;3.40;;;9.40;87.30;;;;;;4997641;28;20018;-68
2024/01/30 05:54:51;;;;;;;4.57;2.95;;;9.50;87.30;;;;;;4990243;28;20448;-68
2024/01/30 05:57:16;;;;;;;4.38;2.72;;;9.50;87.20;;;;;;4992248;28;20034;-68
2024/01/30 05:59:43;;;;;;;5.57;3.63;;;9.50;87.10;;;;;;4991121;28;20030;-69
2024/01/30 06:02:10;;;;;;;5.45;3.63;;;9.60;87.20;;;;;;4993122;28;20029;-67
2024/01/30 06:04:36;;;;;;;4.03;2.97;;;9.60;87.20;;;;;;4992444;28;20034;-67
2024/01/30 06:07:02;;;;;;;5.55;3.40;;;9.60;87.10;;;;;;4991856;28;20048;-68
2024/01/30 06:09:28;;;;;;;5.82;3.47;;;9.60;87.20;;;;;;4989254;28;20026;-67
2024/01/30 06:11:54;;;;;;;5.93;3.88;;;9.60;87.20;;;;;;4990664;28;20022;-67
2024/01/30 06:14:20;;;;;;;6.25;4.88;;;9.60;87.20;;;;;;4982768;28;20027;-67
2024/01/30 06:16:46;;;;;;;7.47;4.63;;;9.70;87.30;;;;;;4983434;28;20030;-68
2024/01/30 06:19:11;;;;;;;9.70;5.68;;;9.70;87.60;;;;;;4992805;28;20465;-68
2024/01/30 06:21:38;;;;;;;6.32;4.10;;;9.70;87.90;;;;;;4994332;28;20026;-67
2024/01/30 06:24:04;;;;;;;5.43;3.55;;;9.70;87.90;;;;;;4992854;28;20038;-69
2024/01/30 06:26:29;;;;;;;6.97;4.28;;;9.70;87.80;;;;;;4995821;28;20034;-68
2024/01/30 06:28:55;;;;;;;6.05;3.92;;;9.70;87.90;;;;;;4992803;28;20119;-67
2024/01/30 06:31:21;;;;;;;5.47;4.05;;;9.70;87.90;;;;;;4997309;28;20034;-67
2024/01/30 06:33:50;;;;;;;6.38;3.90;;;9.80;88.00;;;;;;4988728;28;20021;-67
2024/01/30 06:36:15;;;;;;;5.75;3.22;;;9.80;88.00;;;;;;4992559;28;20025;-67
2024/01/30 06:38:41;;;;;;;5.20;3.40;;;9.80;87.90;;;;;;4986221;28;20493;-67
2024/01/30 06:41:07;;;;;;;6.07;4.10;;;9.80;87.80;;;;;;4995571;28;20474;-68
2024/01/30 06:43:33;;;;;;;5.25;3.60;;;9.80;87.80;;;;;;4993324;28;20021;-68
2024/01/30 06:45:59;;;;;;;8.18;5.05;;;9.80;87.90;;;;;;4990669;28;20025;-68
2024/01/30 06:48:25;;;;;;;7.93;4.88;;;9.80;88.10;;;;;;4991171;28;20040;-68
2024/01/30 06:50:53;;;;;;;9.07;4.53;;;9.80;88.30;;;;;;4989896;28;20018;-68
2024/01/30 06:53:19;;;;;;;5.90;3.50;;;9.90;88.30;;;;;;4992982;28;20069;-68
2024/01/30 06:55:44;;;;;;;6.22;3.72;;;9.90;88.30;;;;;;4989281;28;20034;-68
2024/01/30 06:58:10;;;;;;;6.40;3.67;;;9.90;88.20;;;;;;4989690;28;20085;-69
2024/01/30 07:00:36;;;;;;;7.82;4.35;;;9.90;88.20;;;;;;4991807;28;20045;-68
2024/01/30 07:03:01;;;;;;;5.18;3.38;;;9.90;88.30;;;;;;5022603;28;20022;-68
2024/01/30 07:05:27;;;;;;;5.00;3.50;;;9.90;88.20;;;;;;4990411;28;20555;-68
2024/01/30 07:07:52;;;;;;;5.63;4.05;;;9.90;88.30;;;;;;4990505;28;20496;-68
2024/01/30 07:10:18;;;;;;;5.80;4.18;;;10.00;88.50;;;;;;4991479;28;20065;-68
2024/01/30 07:12:44;;;;;;;9.27;5.68;;;10.00;88.60;;;;;;4991053;28;20038;-68
2024/01/30 07:15:10;;;;;;;10.02;4.55;;;10.00;89.10;;;;;;4994245;28;20097;-68
2024/01/30 07:17:35;;;;;;;8.13;5.35;;;10.00;89.10;;;;;;4998658;28;20084;-69
2024/01/30 07:20:03;;;;;;;7.60;4.70;;;10.10;89.10;;;;;;4996340;28;20546;-69
2024/01/30 07:22:30;;;;;;;7.50;4.50;;;10.10;89.10;;;;;;5006744;28;20369;-68
2024/01/30 07:24:55;;;;;;;6.00;3.63;;;10.10;89.00;;;;;;4992197;28;20025;-70
2024/01/30 07:27:21;;;;;;;5.60;3.72;;;10.10;89.00;;;;;;4992445;28;20026;-69
2024/01/30 07:29:47;;;;;;;5.93;3.50;;;10.10;89.00;;;;;;4993423;28;20025;-69
2024/01/30 07:32:12;;;;;;;6.68;4.88;;;10.10;89.00;;;;;;5003110;28;20109;-69
2024/01/30 07:34:38;;;;;;;6.00;3.95;;;10.20;89.10;;;;;;4994589;28;20026;-69
2024/01/30 07:37:03;;;;;;;8.13;4.43;;;10.10;89.10;;;;;;5003304;28;20081;-69
2024/01/30 07:39:29;;;;;;;6.28;3.80;;;10.10;89.20;;;;;;4996072;28;20034;-69
2024/01/30 07:41:54;;;;;;;6.70;4.32;;;10.20;89.30;;;;;;4996644;28;20026;-69
2024/01/30 07:44:20;;;;;;;6.40;4.40;;;10.20;89.40;;;;;;4998912;28;20026;-69
2024/01/30 07:46:46;;;;;;;5.70;3.67;;;10.20;89.30;;;;;;4995523;28;20117;-69
2024/01/30 07:49:14;;;;;;;6.70;4.15;;;10.20;89.30;;;;;;4997708;28;20445;-68
2024/01/30 07:51:39;;;;;;;9.20;5.35;;;10.20;89.40;;;;;;5000775;28;20025;-68
2024/01/30 07:54:14;;;;;;;8.75;4.40;;;10.20;89.50;;;;;;5005395;28;20030;-68
2024/01/30 07:56:40;;;;;;;7.05;4.85;;;10.20;89.60;;;;;;4996037;28;20030;-69
2024/01/30 07:59:09;;;;;;;5.95;3.92;;;10.20;89.70;;;;;;4984404;28;20031;-67
2024/01/30 08:01:34;;;;;;;6.47;3.70;;;10.30;89.70;;;;;;4986340;28;20108;-67
2024/01/30 08:04:00;;;;;;;8.35;3.58;;;10.30;89.50;;;;;;4993570;28;20106;-69
2024/01/30 08:06:26;;;;;;;4.72;3.20;;;10.30;89.50;;;;;;5004379;28;20053;-68
2024/01/30 08:08:53;;;;;;;5.55;3.58;;;10.30;89.50;;;;;;4999979;28;20109;-69
2024/01/30 08:11:20;;;;;;;6.00;4.05;;;10.30;89.50;;;;;;4992054;28;20029;-69
2024/01/30 08:13:45;;;;;;;7.25;4.35;;;10.30;89.50;;;;;;5003272;28;20093;-69
2024/01/30 08:16:11;;;;;;;4.90;3.47;;;10.40;89.60;;;;;;4996125;28;20058;-70
2024/01/30 08:18:37;;;;;;;6.50;3.67;;;10.40;89.50;;;;;;4998833;28;20512;-69
2024/01/30 08:21:04;;;;;;;6.40;3.85;;;10.40;89.40;;;;;;5000087;28;20470;-68
2024/01/30 08:23:30;;;;;;;4.78;2.80;;;10.40;89.40;;;;;;5005503;28;20166;-68
2024/01/30 08:25:55;;;;;;;3.85;2.45;;;10.50;89.40;;;;;;5003819;28;20535;-68
2024/01/30 08:28:21;;;;;;;3.17;2.25;;;10.50;89.30;;;;;;5004815;28;20029;-69
2024/01/30 08:30:46;;;;;;;6.40;3.03;;;10.60;89.30;;;;;;4992528;28;20462;-69
2024/01/30 08:33:12;;;;;;;5.93;3.60;;;10.60;89.20;;;;;;5002854;28;20407;-69
2024/01/30 08:35:38;;;;;;;4.53;2.83;;;10.60;89.30;;;;;;4997041;28;20027;-69
2024/01/30 08:38:03;;;;;;;4.40;3.25;;;10.70;89.30;;;;;;4986953;28;20060;-69
2024/01/30 08:40:30;;;;;;;4.95;3.40;;;10.60;89.20;;;;;;4996674;28;20391;-69
2024/01/30 08:42:56;;;;;;;4.55;3.25;;;10.70;89.20;;;;;;4992753;28;20030;-69
2024/01/30 08:45:21;;;;;;;5.53;3.35;;;10.70;89.20;;;;;;4994264;28;20620;-69
2024/01/30 08:47:47;;;;;;;4.78;3.20;;;10.80;89.10;;;;;;4983946;28;20041;-69
2024/01/30 08:50:12;;;;;;;5.03;3.40;;;10.80;89.10;;;;;;4996264;28;20436;-69
2024/01/30 08:52:38;;;;;;;5.25;3.70;;;10.80;89.00;;;;;;4987195;28;20026;-69
2024/01/30 08:55:04;;;;;;;3.90;2.97;;;10.80;89.10;;;;;;4989680;28;20030;-69
2024/01/30 08:57:30;;;;;;;4.18;2.95;;;10.80;89.10;;;;;;4989075;28;20624;-69
2024/01/30 08:59:56;;;;;;;5.65;3.58;;;10.90;89.00;;;;;;4986089;28;20086;-70
2024/01/30 09:02:21;;;;;;;4.57;3.10;;;10.90;89.10;;;;;;4986223;28;20041;-69
2024/01/30 09:04:47;;;;;;;4.45;3.13;;;10.90;89.10;;;;;;4989494;28;20046;-69
2024/01/30 09:07:13;;;;;;;7.15;4.55;;;11.00;89.10;;;;;;4986858;28;20070;-69
2024/01/30 09:09:42;;;;;;;4.95;3.83;;;11.00;89.10;;;;;;4991638;28;20018;-69
2024/01/30 09:12:11;;;;;;;6.25;4.03;;;10.90;89.10;;;;;;4986504;28;20022;-69
2024/01/30 09:14:38;;;;;;;5.07;3.05;;;11.00;89.20;;;;;;4976634;28;20734;-69
2024/01/30 09:17:04;;;;;;;5.32;3.25;;;11.00;89.10;;;;;;4980992;28;20077;-69
2024/01/30 09:19:30;;;;;;;5.88;3.55;;;11.00;89.10;;;;;;4990433;28;20469;-69
2024/01/30 09:21:56;;;;;;;4.70;3.05;;;11.00;89.10;;;;;;4995583;28;20097;-68
2024/01/30 09:24:21;;;;;;;5.00;2.92;;;11.10;89.00;;;;;;4994413;28;20023;-68
2024/01/30 09:26:47;;;;;;;5.45;3.40;;;11.10;89.00;;;;;;4989844;28;20921;-69
2024/01/30 09:29:12;;;;;;;8.38;4.90;;;11.10;89.00;;;;;;4990006;28;20027;-69
2024/01/30 09:31:38;;;;;;;11.02;6.47;;;11.10;89.10;;;;;;5005075;28;20022;-69
2024/01/30 09:34:03;;;;;;;6.95;4.82;;;11.10;89.30;;;;;;4993794;28;20045;-68
2024/01/30 09:36:29;;;;;;;7.05;4.80;;;11.10;89.40;;;;;;5000527;28;20022;-69
2024/01/30 09:38:55;;;;;;;6.78;4.50;;;11.10;89.40;;;;;;4998740;28;20324;-69
2024/01/30 09:41:24;;;;;;;7.15;4.55;;;11.10;89.40;;;;;;4998959;28;20061;-68
2024/01/30 09:43:51;;;;;;;6.32;4.15;;;11.20;89.40;;;;;;5003091;28;20045;-69
2024/01/30 09:46:18;;;;;;;6.13;3.92;;;11.20;89.30;;;;;;4985833;28;20026;-69
2024/01/30 09:48:46;;;;;;;6.13;3.42;;;11.20;89.30;;;;;;4993973;28;20079;-69
2024/01/30 09:51:14;;;;;;;6.20;3.70;;;11.30;89.20;;;;;;4998015;28;20037;-68
2024/01/30 09:53:40;;;;;;;6.00;4.20;;;11.30;89.20;;;;;;4999234;28;20033;-69
2024/01/30 09:56:06;;;;;;;5.05;3.50;;;11.30;89.20;;;;;;4994563;28;20124;-69
2024/01/30 09:58:31;;;;;;;5.68;3.33;;;11.30;89.20;;;;;;4995087;28;20501;-69
2024/01/30 10:00:57;;;;;;;7.22;4.40;;;11.40;89.10;;;;;;4988925;28;20030;-69
2024/01/30 10:03:22;;;;;;;5.80;3.78;;;11.40;89.20;;;;;;4988037;28;20425;-69
2024/01/30 10:05:54;;;;;;;6.20;3.70;;;11.40;89.20;;;;;;4995206;28;20084;-70
2024/01/30 10:08:20;;;;;;;7.03;3.83;;;11.40;89.20;;;;;;4995113;28;20491;-70
2024/01/30 10:10:47;;;;;;;4.72;3.38;;;11.50;89.20;;;;;;4993845;28;20148;-69
2024/01/30 10:13:13;;;;;;;5.00;3.67;;;11.50;89.20;;;;;;4990930;28;20105;-69
2024/01/30 10:15:40;;;;;;;4.07;2.83;;;11.50;89.00;;;;;;4997095;28;20502;-69
2024/01/30 10:18:06;;;;;;;4.05;2.50;;;11.60;89.00;;;;;;4995865;28;20026;-69
2024/01/30 10:20:32;;;;;;;3.33;2.47;;;11.60;88.90;;;;;;4991591;28;20038;-68
2024/01/30 10:22:58;;;;;;;3.10;2.28;;;11.60;89.50;;;;;;4999873;28;20026;-69
2024/01/30 10:25:25;;;;;;;5.60;3.10;;;11.70;88.90;;;;;;4991095;28;20032;-69
2024/01/30 10:27:56;;;;;;;3.55;2.67;;;11.70;88.90;;;;;;4991685;28;20030;-69
2024/01/30 10:30:22;;;;;;;3.78;2.50;;;11.70;88.80;;;;;;4991537;28;20018;-69
2024/01/30 10:32:48;;;;;;;3.70;2.80;;;11.80;88.80;;;;;;4991666;28;20022;-69
2024/01/30 10:35:14;;;;;;;4.07;3.05;;;11.70;88.90;;;;;;4990245;28;20035;-69
2024/01/30 10:37:43;;;;;;;4.18;2.45;;;11.80;89.00;;;;;;4991232;28;20030;-69
2024/01/30 10:40:12;;;;;;;4.22;2.85;;;11.80;89.00;;;;;;4991219;28;20489;-69
2024/01/30 10:42:42;;;;;;;3.67;2.70;;;11.80;89.00;;;;;;4986631;28;20452;-69
2024/01/30 10:45:12;;;;;;;3.47;2.65;;;11.80;89.00;;;;;;4991111;28;20034;-70
2024/01/30 10:47:40;;;;;;;5.70;3.30;;;11.80;89.00;;;;;;4991329;28;20030;-69
2024/01/30 10:50:08;;;;;;;5.22;2.75;;;11.90;89.10;;;;;;4990291;28;20019;-70
2024/01/30 10:52:34;;;;;;;4.38;2.80;;;11.90;89.10;;;;;;4983228;28;20014;-69
2024/01/30 10:55:00;;;;;;;5.03;2.97;;;11.90;89.10;;;;;;4991090;28;20026;-69
2024/01/30 10:57:27;;;;;;;3.88;2.85;;;11.90;89.10;;;;;;4991739;28;20033;-69
2024/01/30 10:59:56;;;;;;;4.00;2.67;;;12.00;89.10;;;;;;4990735;28;20442;-69
2024/01/30 11:02:23;;;;;;;3.40;2.38;;;12.00;89.20;;;;;;4991558;28;20033;-69
2024/01/30 11:04:49;;;;;;;3.63;2.13;;;12.10;89.20;;;;;;4991863;28;20088;-69
2024/01/30 11:07:16;;;;;;;4.90;2.85;;;12.10;89.10;;;;;;4991936;28;20030;-69
2024/01/30 11:09:49;;;;;;;4.07;2.60;;;12.20;89.00;;;;;;4998016;28;20049;-69
2024/01/30 11:12:15;;;;;;;6.40;3.30;;;12.20;88.90;;;;;;4998897;28;20029;-68
2024/01/30 11:14:40;;;;;;;5.03;3.25;;;12.20;88.80;;;;;;4991115;28;20466;-68
2024/01/30 11:17:06;;;;;;;5.10;3.15;;;12.30;88.70;;;;;;4996462;28;20093;-69
2024/01/30 11:19:33;;;;;;;4.45;3.25;;;12.40;88.70;;;;;;5001428;28;20026;-69
2024/01/30 11:22:00;;;;;;;4.32;2.90;;;12.50;88.60;;;;;;4997543;28;20040;-68
2024/01/30 11:24:27;;;;;;;4.93;2.72;;;12.50;88.30;;;;;;4996488;28;20081;-69
2024/01/30 11:27:00;;;;;;;5.85;3.67;;;12.60;88.20;;;;;;4986550;28;20058;-69
2024/01/30 11:29:28;;;;;;;5.78;3.42;;;12.60;88.10;;;;;;4976475;28;20647;-69
2024/01/30 11:31:58;;;;;;;6.32;3.50;;;12.60;88.10;;;;;;4987450;28;20040;-69
2024/01/30 11:34:24;;;;;;;6.47;3.85;;;12.60;88.20;;;;;;4980917;28;20029;-69
2024/01/30 11:36:58;;;;;;;7.18;4.03;;;12.60;88.20;;;;;;4979999;28;20441;-69
2024/01/30 11:39:26;;;;;;;5.88;3.58;;;12.60;88.20;;;;;;4974414;28;20499;-69
2024/01/30 11:41:53;;;;;;;6.32;4.13;;;12.60;88.20;;;;;;4982398;28;20038;-69
2024/01/30 11:44:20;;;;;;;6.85;4.15;;;12.60;88.40;;;;;;4980838;28;20080;-69
2024/01/30 11:46:47;;;;;;;7.15;4.25;;;12.60;88.40;;;;;;4977663;28;20062;-69
2024/01/30 11:49:13;;;;;;;5.82;3.67;;;12.60;88.40;;;;;;4983825;28;20023;-68
2024/01/30 11:51:39;;;;;;;7.15;4.55;;;12.70;88.40;;;;;;4980980;28;20048;-69
2024/01/30 11:54:04;;;;;;;5.40;3.40;;;12.70;88.30;;;;;;4985556;28;20469;-69
2024/01/30 11:56:30;;;;;;;7.50;3.78;;;12.80;88.20;;;;;;4985588;28;20772;-69
2024/01/30 11:58:55;;;;;;;5.82;4.00;;;12.80;88.00;;;;;;4972692;28;20050;-69
2024/01/30 12:01:21;;;;;;;9.73;4.80;;;12.90;87.90;;;;;;4981347;28;20038;-68
2024/01/30 12:03:50;;;;;;;6.75;4.32;;;13.00;87.70;;;;;;4990024;28;20053;-68
2024/01/30 12:06:16;;;;;;;7.00;4.28;;;13.00;87.50;;;;;;4981806;28;20026;-68
2024/01/30 12:08:42;;;;;;;8.85;4.60;;;13.00;87.40;;;;;;4983610;28;20589;-68
2024/01/30 12:11:08;;;;;;;7.13;4.18;;;13.00;87.30;;;;;;4984359;28;20022;-68
2024/01/30 12:13:34;;;;;;;7.30;4.20;;;13.00;87.30;;;;;;4986846;28;20026;-68
2024/01/30 12:16:01;;;;;;;6.68;3.53;;;13.00;87.30;;;;;;4974759;28;20106;-68
2024/01/30 12:18:26;;;;;;;5.82;3.60;;;13.10;87.20;;;;;;4981188;28;20018;-68
2024/01/30 12:20:59;;;;;;;4.97;3.15;;;13.20;86.80;;;;;;4976801;28;20500;-67
2024/01/30 12:23:26;;;;;;;5.55;3.20;;;13.60;86.20;;;;;;4981143;28;20030;-69
2024/01/30 12:25:52;;;;;;;4.80;3.05;;;14.20;84.60;;;;;;4983281;28;20366;-69
2024/01/30 12:28:18;;;;;;;5.60;3.45;;;14.70;82.60;;;;;;4989024;28;20088;-68
2024/01/30 12:30:43;;;;;;;4.85;3.63;;;14.40;82.20;;;;;;4985349;28;20136;-68
2024/01/30 12:33:09;;;;;;;5.15;3.45;;;14.10;82.80;;;;;;4986041;28;20061;-68
2024/01/30 12:35:35;;;;;;;5.63;3.42;;;13.90;83.40;;;;;;4979656;28;20027;-68
2024/01/30 12:38:02;;;;;;;6.05;3.75;;;13.70;84.00;;;;;;4985766;28;20681;-68
2024/01/30 12:40:28;;;;;;;7.43;3.60;;;13.60;84.30;;;;;;4980435;28;20031;-68
2024/01/30 12:42:54;;;;;;;4.22;2.72;;;13.40;84.60;;;;;;4989265;28;20659;-69
2024/01/30 12:45:21;;;;;;;3.95;2.47;;;13.20;84.60;;;;;;4981534;28;20038;-68
2024/01/30 12:47:47;;;;;;;4.80;2.55;;;13.10;84.90;;;;;;4978873;28;20031;-68